createdAt,value
2023-02-13T00:01:35.759Z,27.08
2023-02-13T00:04:02.025Z,25.85
2023-02-13T00:06:28.239Z,26.02
2023-02-13T00:08:54.552Z,25.95
2023-02-13T00:11:20.761Z,28.85
2023-02-13T00:13:47.025Z,26.88
2023-02-13T00:16:13.361Z,26.02
2023-02-13T00:18:39.788Z,25.15
2023-02-13T00:21:07.155Z,26.42
2023-02-13T00:23:34.108Z,27.45
2023-02-13T00:26:00.710Z,26.08
2023-02-13T00:28:27.314Z,25.08
2023-02-13T00:30:53.659Z,25.15
2023-02-13T00:33:19.983Z,25.88
2023-02-13T00:35:46.271Z,26.17
2023-02-13T00:38:12.528Z,29.35
2023-02-13T00:40:38.760Z,31.73
2023-02-13T00:43:04.963Z,29.90
2023-02-13T00:45:31.184Z,27.70
2023-02-13T00:47:57.382Z,28.95
2023-02-13T00:50:23.663Z,31.40
2023-02-13T00:52:49.932Z,26.63
2023-02-13T00:55:16.325Z,29.55
2023-02-13T00:57:42.598Z,30.52
2023-02-13T01:00:09.080Z,33.25
2023-02-13T01:02:36.112Z,38.38
2023-02-13T01:05:02.532Z,29.83
2023-02-13T01:07:28.862Z,27.35
2023-02-13T01:09:55.141Z,32.22
2023-02-13T01:12:21.397Z,23.65
2023-02-13T01:14:47.741Z,26.23
2023-02-13T01:17:13.950Z,24.08
2023-02-13T01:19:40.691Z,23.83
2023-02-13T01:22:07.749Z,22.55
2023-02-13T01:24:34.084Z,20.33
2023-02-13T01:27:02.324Z,18.33
2023-02-13T01:29:29.019Z,21.38
2023-02-13T01:31:55.357Z,19.33
2023-02-13T01:34:21.686Z,18.17
2023-02-13T01:36:47.917Z,16.88
2023-02-13T01:39:14.180Z,15.68
2023-02-13T01:41:40.505Z,17.70
2023-02-13T01:44:25.567Z,17.83
2023-02-13T01:46:51.872Z,16.35
2023-02-13T01:49:20.094Z,16.50
2023-02-13T01:51:47.234Z,17.83
2023-02-13T01:54:15.214Z,16.13
2023-02-13T01:56:44.471Z,16.23
2023-02-13T01:59:12.702Z,16.90
2023-02-13T02:01:39.370Z,17.35
2023-02-13T02:04:08.775Z,24.38
2023-02-13T02:06:37.031Z,22.73
2023-02-13T02:09:06.065Z,26.27
2023-02-13T02:11:59.013Z,28.77
2023-02-13T02:14:26.039Z,24.25
2023-02-13T02:16:53.767Z,19.33
2023-02-13T02:19:39.951Z,18.88
2023-02-13T02:22:09.276Z,18.90
2023-02-13T02:24:47.641Z,18.00
2023-02-13T02:27:22.019Z,19.08
2023-02-13T02:29:57.310Z,18.05
2023-02-13T02:32:35.889Z,17.90
2023-02-13T02:35:02.128Z,17.00
2023-02-13T02:37:35.422Z,16.92
2023-02-13T02:40:07.732Z,19.65
2023-02-13T02:42:46.206Z,18.17
2023-02-13T02:45:28.941Z,18.40
2023-02-13T02:48:25.315Z,18.13
2023-02-13T02:50:53.523Z,19.20
2023-02-13T02:53:41.867Z,20.38
2023-02-13T02:56:23.471Z,19.27
2023-02-13T02:59:14.473Z,20.65
2023-02-13T03:02:00.186Z,20.38
2023-02-13T03:05:05.106Z,21.02
2023-02-13T03:07:31.793Z,21.05
2023-02-13T03:10:18.647Z,22.45
2023-02-13T03:13:09.621Z,22.15
2023-02-13T03:15:56.892Z,20.27
2023-02-13T03:18:46.072Z,22.95
2023-02-13T03:21:43.935Z,22.65
2023-02-13T03:24:17.356Z,19.55
2023-02-13T03:26:52.507Z,22.58
2023-02-13T03:29:37.504Z,23.13
2023-02-13T03:32:12.226Z,21.42
2023-02-13T03:35:00.471Z,21.92
2023-02-13T03:37:47.280Z,21.52
2023-02-13T03:40:17.685Z,22.27
2023-02-13T03:42:47.220Z,22.48
2023-02-13T03:45:38.061Z,21.50
2023-02-13T03:48:09.826Z,23.52
2023-02-13T03:50:42.427Z,21.08
2023-02-13T03:53:10.274Z,21.80
2023-02-13T03:55:57.226Z,22.75
2023-02-13T03:58:42.946Z,22.35
2023-02-13T04:01:11.660Z,22.10
2023-02-13T04:03:42.544Z,22.52
2023-02-13T04:06:10.839Z,22.35
2023-02-13T04:08:37.217Z,23.15
2023-02-13T04:11:23.706Z,22.65
2023-02-13T04:13:52.970Z,23.92
2023-02-13T04:16:27.801Z,23.08
2023-02-13T04:18:55.002Z,23.60
2023-02-13T04:21:21.289Z,23.30
2023-02-13T04:23:47.514Z,22.73
2023-02-13T04:26:17.982Z,23.05
2023-02-13T04:28:44.222Z,22.83
2023-02-13T04:31:10.619Z,30.33
2023-02-13T04:33:37.012Z,28.40
2023-02-13T04:36:03.353Z,25.33
2023-02-13T04:38:29.612Z,25.65
2023-02-13T04:40:56.211Z,23.58
2023-02-13T04:43:22.836Z,24.45
2023-02-13T04:45:49.365Z,26.00
2023-02-13T04:48:15.670Z,26.52
2023-02-13T04:50:41.900Z,24.55
2023-02-13T04:53:08.190Z,23.77
2023-02-13T04:55:34.409Z,27.30
2023-02-13T04:58:00.681Z,22.65
2023-02-13T05:00:28.050Z,23.08
2023-02-13T05:02:54.759Z,22.27
2023-02-13T05:05:21.292Z,22.20
2023-02-13T05:07:47.632Z,22.38
2023-02-13T05:10:13.891Z,24.90
2023-02-13T05:12:40.143Z,29.85
2023-02-13T05:15:06.709Z,28.48
2023-02-13T05:17:32.946Z,27.15
2023-02-13T05:19:59.893Z,26.52
2023-02-13T05:25:11.303Z,23.05
2023-02-13T05:27:37.538Z,24.25
2023-02-13T05:30:03.892Z,22.13
2023-02-13T05:32:30.126Z,23.50
2023-02-13T05:34:56.376Z,22.80
2023-02-13T05:37:22.587Z,22.38
2023-02-13T05:39:48.900Z,23.92
2023-02-13T05:42:15.136Z,21.60
2023-02-13T05:44:41.600Z,22.92
2023-02-13T05:47:07.870Z,22.60
2023-02-13T05:49:34.127Z,22.00
2023-02-13T05:52:00.337Z,22.33
2023-02-13T05:54:26.558Z,23.10
2023-02-13T05:56:52.818Z,22.05
2023-02-13T05:59:19.149Z,23.17
2023-02-13T06:01:45.468Z,23.75
2023-02-13T06:04:11.757Z,22.70
2023-02-13T06:06:38.123Z,22.45
2023-02-13T06:09:04.494Z,21.83
2023-02-13T06:11:30.774Z,21.52
2023-02-13T06:13:57.015Z,21.55
2023-02-13T06:16:23.380Z,22.63
2023-02-13T06:18:49.652Z,24.77
2023-02-13T06:21:15.929Z,22.65
2023-02-13T06:23:42.783Z,22.40
2023-02-13T06:28:35.242Z,21.35
2023-02-13T06:31:02.028Z,21.65
2023-02-13T06:33:28.518Z,22.45
2023-02-13T06:35:54.794Z,23.45
2023-02-13T06:38:21.475Z,23.15
2023-02-13T06:40:48.249Z,23.33
2023-02-13T06:43:15.056Z,23.13
2023-02-13T06:45:41.568Z,24.80
2023-02-13T06:48:07.860Z,25.38
2023-02-13T06:50:34.654Z,26.75
2023-02-13T06:55:27.394Z,24.45
2023-02-13T06:57:53.698Z,26.63
2023-02-13T07:00:20.229Z,26.02
2023-02-13T07:02:47.021Z,26.23
2023-02-13T07:07:40.644Z,26.15
2023-02-13T07:10:08.068Z,38.15
2023-02-13T07:12:34.783Z,28.05
2023-02-13T07:17:27.386Z,23.98
2023-02-13T07:19:53.699Z,25.10
2023-02-13T07:22:20.069Z,21.48
2023-02-13T07:24:46.302Z,25.65
2023-02-13T07:27:12.575Z,27.60
2023-02-13T07:29:38.801Z,23.08
2023-02-13T07:32:07.039Z,23.85
2023-02-13T07:34:33.432Z,26.23
2023-02-13T07:36:59.664Z,25.10
2023-02-13T07:39:25.940Z,26.10
2023-02-13T07:41:52.255Z,23.75
2023-02-13T07:44:18.520Z,25.05
2023-02-13T07:46:44.777Z,22.83
2023-02-13T07:49:11.079Z,22.08
2023-02-13T07:51:37.380Z,22.90
2023-02-13T07:54:03.713Z,23.05
2023-02-13T07:56:29.951Z,22.77
2023-02-13T07:58:56.186Z,21.15
2023-02-13T08:01:22.675Z,22.63
2023-02-13T08:03:52.589Z,21.13
2023-02-13T08:06:19.843Z,22.63
2023-02-13T08:08:46.163Z,22.00
2023-02-13T08:11:42.808Z,23.13
2023-02-13T08:14:09.418Z,22.55
2023-02-13T08:16:35.989Z,24.02
2023-02-13T08:19:02.252Z,24.55
2023-02-13T08:21:28.473Z,24.13
2023-02-13T08:23:54.747Z,25.42
2023-02-13T08:26:20.983Z,22.52
2023-02-13T08:28:47.210Z,23.40
2023-02-13T08:31:13.545Z,25.15
2023-02-13T08:33:41.354Z,24.15
2023-02-13T08:36:07.849Z,23.85
2023-02-13T08:38:34.171Z,28.42
2023-02-13T08:41:00.451Z,26.50
2023-02-13T08:43:26.673Z,26.17
2023-02-13T08:45:52.988Z,26.58
2023-02-13T08:48:19.244Z,27.00
2023-02-13T08:50:45.476Z,26.20
2023-02-13T08:53:11.691Z,22.90
2023-02-13T08:55:37.930Z,24.58
2023-02-13T08:58:04.741Z,24.15
2023-02-13T09:00:31.133Z,22.77
2023-02-13T09:03:01.001Z,22.13
2023-02-13T09:05:27.372Z,22.33
2023-02-13T09:07:53.627Z,24.92
2023-02-13T09:10:20.131Z,23.02
2023-02-13T09:12:52.090Z,20.90
2023-02-13T09:15:18.375Z,20.50
2023-02-13T09:17:44.665Z,21.95
2023-02-13T09:20:13.865Z,21.70
2023-02-13T09:22:40.659Z,22.33
2023-02-13T09:25:07.349Z,21.55
2023-02-13T09:27:34.632Z,21.15
2023-02-13T09:30:01.368Z,21.20
2023-02-13T09:32:27.912Z,21.70
2023-02-13T09:34:54.230Z,20.33
2023-02-13T09:37:22.812Z,21.98
2023-02-13T09:39:49.023Z,25.65
2023-02-13T09:42:21.054Z,20.63
2023-02-13T09:44:48.857Z,21.73
2023-02-13T09:47:15.059Z,21.65
2023-02-13T09:49:43.761Z,20.23
2023-02-13T09:52:10.264Z,21.10
2023-02-13T09:54:36.532Z,19.70
2023-02-13T09:57:02.829Z,22.67
2023-02-13T09:59:47.886Z,21.13
2023-02-13T10:02:24.620Z,20.67
2023-02-13T10:05:01.065Z,20.75
2023-02-13T10:07:38.970Z,21.70
2023-02-13T10:10:05.182Z,19.88
2023-02-13T10:12:46.137Z,19.98
2023-02-13T10:15:17.368Z,19.20
2023-02-13T10:17:44.946Z,19.73
2023-02-13T10:20:23.357Z,19.65
2023-02-13T10:22:51.932Z,19.23
2023-02-13T10:25:25.747Z,19.35
2023-02-13T10:27:57.170Z,19.35
2023-02-13T10:30:25.891Z,19.05
2023-02-13T10:33:11.087Z,19.05
2023-02-13T10:35:38.429Z,19.60
2023-02-13T10:38:13.911Z,18.25
2023-02-13T10:40:42.072Z,18.45
2023-02-13T10:43:09.249Z,18.35
2023-02-13T10:45:44.706Z,19.38
2023-02-13T10:48:37.751Z,19.33
2023-02-13T10:51:14.810Z,16.95
2023-02-13T10:53:50.357Z,16.33
2023-02-13T10:56:30.460Z,14.20
2023-02-13T10:59:05.947Z,14.45
2023-02-13T11:01:32.218Z,14.95
2023-02-13T11:04:06.348Z,15.23
2023-02-13T11:06:34.649Z,12.45
2023-02-13T11:09:00.914Z,13.23
2023-02-13T11:11:31.716Z,12.55
2023-02-13T11:14:09.211Z,13.30
2023-02-13T11:19:01.709Z,12.55
2023-02-13T11:21:34.318Z,10.80
2023-02-13T11:24:00.926Z,11.88
2023-02-13T11:26:31.237Z,11.43
2023-02-13T11:29:00.934Z,10.38
2023-02-13T11:31:31.889Z,9.85
2023-02-13T11:33:59.902Z,10.43
2023-02-13T11:36:32.229Z,9.63
2023-02-13T11:39:03.590Z,13.07
2023-02-13T11:41:30.256Z,9.25
2023-02-13T11:46:31.138Z,8.60
2023-02-13T11:49:03.181Z,8.68
2023-02-13T11:51:46.410Z,8.82
2023-02-13T11:54:39.011Z,7.85
2023-02-13T11:57:18.427Z,8.48
2023-02-13T11:59:45.483Z,8.90
2023-02-13T12:02:11.721Z,7.70
2023-02-13T12:04:38.079Z,8.02
2023-02-13T12:07:12.130Z,8.20
2023-02-13T12:09:40.034Z,7.35
2023-02-13T12:12:07.693Z,7.88
2023-02-13T12:14:39.854Z,7.95
2023-02-13T12:17:25.544Z,8.52
2023-02-13T12:19:56.971Z,8.30
2023-02-13T12:24:55.437Z,7.50
2023-02-13T12:27:21.667Z,7.32
2023-02-13T12:30:09.426Z,7.07
2023-02-13T12:32:35.642Z,6.60
2023-02-13T12:37:33.802Z,7.15
2023-02-13T12:40:13.267Z,6.57
2023-02-13T12:42:45.263Z,7.10
2023-02-13T12:45:15.230Z,6.03
2023-02-13T12:47:47.574Z,6.38
2023-02-13T12:50:32.624Z,6.15
2023-02-13T12:53:19.271Z,7.95
2023-02-13T12:55:57.759Z,6.65
2023-02-13T12:58:42.792Z,6.05
2023-02-13T13:01:19.870Z,6.28
2023-02-13T13:04:21.815Z,7.57
2023-02-13T13:07:06.552Z,7.80
2023-02-13T13:09:32.782Z,7.63
2023-02-13T13:12:13.124Z,7.00
2023-02-13T13:14:46.485Z,6.85
2023-02-13T13:17:12.751Z,6.70
2023-02-13T13:19:41.990Z,7.03
2023-02-13T13:22:23.487Z,7.50
2023-02-13T13:24:56.312Z,6.95
2023-02-13T13:27:33.295Z,7.80
2023-02-13T13:30:04.989Z,7.53
2023-02-13T13:32:32.291Z,7.75
2023-02-13T13:34:58.695Z,7.22
2023-02-13T13:37:49.278Z,8.02
2023-02-13T13:40:28.978Z,8.25
2023-02-13T13:43:13.006Z,7.60
2023-02-13T13:45:54.430Z,7.88
2023-02-13T13:48:39.313Z,8.07
2023-02-13T13:51:06.676Z,7.75
2023-02-13T13:53:33.127Z,7.63
2023-02-13T13:56:02.297Z,7.20
2023-02-13T13:58:31.546Z,7.45
2023-02-13T14:01:16.713Z,7.15
2023-02-13T14:03:46.957Z,7.68
2023-02-13T14:06:14.507Z,7.45
2023-02-13T14:08:40.754Z,7.05
2023-02-13T14:11:24.474Z,6.72
2023-02-13T14:13:50.820Z,7.38
2023-02-13T14:16:36.102Z,6.35
2023-02-13T14:19:02.419Z,7.47
2023-02-13T14:21:28.697Z,6.97
2023-02-13T14:23:57.303Z,7.45
2023-02-13T14:26:37.848Z,8.35
2023-02-13T14:29:10.144Z,7.95
2023-02-13T14:31:39.231Z,7.80
2023-02-13T14:34:11.445Z,10.23
2023-02-13T14:36:43.030Z,13.38
2023-02-13T14:39:12.070Z,7.57
2023-02-13T14:41:42.408Z,9.85
2023-02-13T14:44:28.069Z,6.75
2023-02-13T14:46:55.324Z,9.75
2023-02-13T14:49:26.820Z,8.35
2023-02-13T14:51:55.439Z,8.13
2023-02-13T14:54:25.915Z,9.02
2023-02-13T14:56:53.396Z,7.97
2023-02-13T14:59:22.735Z,8.20
2023-02-13T15:01:51.181Z,8.35
2023-02-13T15:04:22.334Z,17.73
2023-02-13T15:06:49.606Z,12.85
2023-02-13T15:09:19.546Z,8.40
2023-02-13T15:11:45.792Z,8.82
2023-02-13T15:14:31.844Z,7.05
2023-02-13T15:17:07.020Z,8.93
2023-02-13T15:19:35.636Z,7.78
2023-02-13T15:22:03.102Z,9.32
2023-02-13T15:24:35.347Z,9.55
2023-02-13T15:27:06.468Z,7.85
2023-02-13T15:29:44.299Z,8.65
2023-02-13T15:32:19.587Z,8.50
2023-02-13T15:34:49.016Z,9.70
2023-02-13T15:37:25.242Z,8.60
2023-02-13T15:39:51.525Z,9.50
2023-02-13T15:42:17.861Z,7.40
2023-02-13T15:44:45.604Z,8.40
2023-02-13T15:47:17.494Z,8.95
2023-02-13T15:49:45.169Z,8.45
2023-02-13T15:52:29.850Z,11.40
2023-02-13T15:54:56.518Z,9.32
2023-02-13T15:57:23.467Z,6.88
2023-02-13T16:02:21.275Z,8.38
2023-02-13T16:04:49.337Z,7.15
2023-02-13T16:07:15.645Z,7.35
2023-02-13T16:09:42.056Z,8.85
2023-02-13T16:12:28.084Z,7.35
2023-02-13T16:14:59.882Z,11.70
2023-02-13T16:17:29.016Z,8.52
2023-02-13T16:20:01.451Z,6.85
2023-02-13T16:22:27.729Z,11.10
2023-02-13T16:24:55.740Z,8.55
2023-02-13T16:27:25.788Z,12.07
2023-02-13T16:30:15.483Z,10.93
2023-02-13T16:32:41.803Z,9.05
2023-02-13T16:35:23.184Z,8.75
2023-02-13T16:37:50.727Z,8.02
2023-02-13T16:40:31.949Z,8.40
2023-02-13T16:43:17.208Z,7.13
2023-02-13T16:45:43.486Z,8.75
2023-02-13T16:48:14.590Z,8.07
2023-02-13T16:50:41.301Z,7.72
2023-02-13T16:53:07.556Z,8.23
2023-02-13T16:55:33.757Z,7.43
2023-02-13T16:58:04.082Z,8.43
2023-02-13T17:00:30.499Z,7.30
2023-02-13T17:02:56.907Z,8.65
2023-02-13T17:05:24.416Z,8.45
2023-02-13T17:07:51.837Z,10.05
2023-02-13T17:10:18.035Z,12.57
2023-02-13T17:12:44.880Z,10.63
2023-02-13T17:15:12.380Z,30.23
2023-02-13T17:17:38.776Z,12.82
2023-02-13T17:20:05.413Z,16.33
2023-02-13T17:22:33.843Z,13.38
2023-02-13T17:25:00.775Z,11.35
2023-02-13T17:29:53.300Z,8.95
2023-02-13T17:32:22.192Z,8.65
2023-02-13T17:34:48.757Z,8.07
2023-02-13T17:37:17.062Z,12.95
2023-02-13T17:39:43.270Z,14.48
2023-02-13T17:42:15.728Z,15.77
2023-02-13T17:44:41.926Z,10.98
2023-02-13T17:47:08.150Z,12.10
2023-02-13T17:49:34.382Z,9.30
2023-02-13T17:52:00.717Z,7.82
2023-02-13T17:54:27.305Z,8.18
2023-02-13T17:56:53.610Z,11.23
2023-02-13T17:59:19.831Z,10.93
2023-02-13T18:01:46.104Z,10.25
2023-02-13T18:04:12.345Z,9.88
2023-02-13T18:06:38.593Z,10.23
2023-02-13T18:09:04.813Z,8.57
2023-02-13T18:11:31.118Z,10.52
2023-02-13T18:13:57.443Z,10.35
2023-02-13T18:16:25.230Z,10.25
2023-02-13T18:18:51.929Z,9.57
2023-02-13T18:21:21.404Z,10.25
2023-02-13T18:23:47.726Z,8.95
2023-02-13T18:26:13.953Z,9.57
2023-02-13T18:28:40.268Z,9.93
2023-02-13T18:31:08.641Z,8.90
2023-02-13T18:33:35.587Z,9.75
2023-02-13T18:38:28.705Z,8.85
2023-02-13T18:43:21.624Z,8.90
2023-02-13T18:45:47.894Z,12.48
2023-02-13T18:48:14.440Z,8.82
2023-02-13T18:50:41.364Z,12.75
